Terminal Aerodrome Forecast
Issued by NWS

Home | Current Version | Previous Version | Text Only | Print | Product List | Glossary On
Versions: 1 2 3 4 5 6 7 8 9 10 11 12 13 14 15 16 17 18 19 20 21
000
FTUS43 KLSX 172300
TAFUIN
TAF
KUIN 172320Z 1800/1824 02005KT 6SM BR OVC020
     FM180200 VRB03KT 5SM BR OVC012
     FM180500 VRB03KT 2SM BR OVC008
     FM181600 19005KT 6SM BR BKN015
     FM182200 20006KT P6SM SCT030=

USA.gov is the U.S. government's official web portal to all federal, state and local government web resources and services.